sensor_id;sensor_type;location;lat;lon;timestamp;P1;durP1;ratioP1;P2;durP2;ratioP2
50689;SDS011;54375;48.298;11.238;2023-03-05T00:12:19;67.15;;;28.15;;
50689;SDS011;54375;48.298;11.238;2023-03-05T00:27:21;59.72;;;25.30;;
50689;SDS011;54375;48.298;11.238;2023-03-05T00:42:24;69.15;;;28.95;;
50689;SDS011;54375;48.298;11.238;2023-03-05T00:57:26;66.40;;;28.85;;
50689;SDS011;54375;48.298;11.238;2023-03-05T01:12:29;70.13;;;28.35;;
50689;SDS011;54375;48.298;11.238;2023-03-05T01:27:31;70.47;;;30.15;;
50689;SDS011;54375;48.298;11.238;2023-03-05T01:42:34;70.28;;;28.15;;
50689;SDS011;54375;48.298;11.238;2023-03-05T01:57:37;67.43;;;29.83;;
50689;SDS011;54375;48.298;11.238;2023-03-05T02:12:44;70.90;;;27.77;;
50689;SDS011;54375;48.298;11.238;2023-03-05T02:27:51;70.32;;;28.58;;
50689;SDS011;54375;48.298;11.238;2023-03-05T02:42:58;65.03;;;28.77;;
50689;SDS011;54375;48.298;11.238;2023-03-05T02:58:01;63.80;;;26.40;;
50689;SDS011;54375;48.298;11.238;2023-03-05T03:13:03;54.00;;;24.38;;
50689;SDS011;54375;48.298;11.238;2023-03-05T03:28:07;55.63;;;24.55;;
50689;SDS011;54375;48.298;11.238;2023-03-05T03:43:09;60.95;;;25.65;;
50689;SDS011;54375;48.298;11.238;2023-03-05T03:58:12;54.38;;;24.90;;
50689;SDS011;54375;48.298;11.238;2023-03-05T04:13:15;53.67;;;24.00;;
50689;SDS011;54375;48.298;11.238;2023-03-05T04:28:18;57.47;;;24.90;;
50689;SDS011;54375;48.298;11.238;2023-03-05T04:43:20;55.65;;;24.42;;
50689;SDS011;54375;48.298;11.238;2023-03-05T04:58:22;56.95;;;24.00;;
50689;SDS011;54375;48.298;11.238;2023-03-05T05:13:25;57.45;;;24.45;;
50689;SDS011;54375;48.298;11.238;2023-03-05T05:28:27;53.70;;;24.98;;
50689;SDS011;54375;48.298;11.238;2023-03-05T05:43:30;54.13;;;23.77;;
50689;SDS011;54375;48.298;11.238;2023-03-05T05:58:32;55.28;;;24.77;;
50689;SDS011;54375;48.298;11.238;2023-03-05T06:13:34;59.22;;;26.10;;
50689;SDS011;54375;48.298;11.238;2023-03-05T06:28:37;58.53;;;27.42;;
50689;SDS011;54375;48.298;11.238;2023-03-05T06:43:40;54.78;;;25.17;;
50689;SDS011;54375;48.298;11.238;2023-03-05T06:58:45;57.25;;;26.80;;
50689;SDS011;54375;48.298;11.238;2023-03-05T07:13:49;60.42;;;28.83;;
50689;SDS011;54375;48.298;11.238;2023-03-05T07:28:52;61.65;;;28.67;;
50689;SDS011;54375;48.298;11.238;2023-03-05T07:43:54;54.28;;;26.05;;
50689;SDS011;54375;48.298;11.238;2023-03-05T07:58:57;63.47;;;29.25;;
50689;SDS011;54375;48.298;11.238;2023-03-05T08:14:00;57.63;;;26.35;;
50689;SDS011;54375;48.298;11.238;2023-03-05T08:29:02;62.55;;;28.77;;
50689;SDS011;54375;48.298;11.238;2023-03-05T08:44:04;56.00;;;27.65;;
50689;SDS011;54375;48.298;11.238;2023-03-05T08:59:08;54.10;;;25.20;;
50689;SDS011;54375;48.298;11.238;2023-03-05T09:14:11;57.70;;;26.38;;
50689;SDS011;54375;48.298;11.238;2023-03-05T09:29:13;55.58;;;24.63;;
50689;SDS011;54375;48.298;11.238;2023-03-05T09:44:20;55.75;;;25.70;;
50689;SDS011;54375;48.298;11.238;2023-03-05T09:59:28;60.23;;;27.20;;
50689;SDS011;54375;48.298;11.238;2023-03-05T10:14:35;68.20;;;33.17;;
50689;SDS011;54375;48.298;11.238;2023-03-05T10:29:47;58.13;;;29.77;;
50689;SDS011;54375;48.298;11.238;2023-03-05T10:45:11;59.15;;;27.65;;
50689;SDS011;54375;48.298;11.238;2023-03-05T11:00:20;53.75;;;26.02;;
50689;SDS011;54375;48.298;11.238;2023-03-05T11:15:28;46.13;;;23.50;;
50689;SDS011;54375;48.298;11.238;2023-03-05T11:30:31;51.55;;;22.90;;
50689;SDS011;54375;48.298;11.238;2023-03-05T11:45:35;55.85;;;25.75;;
50689;SDS011;54375;48.298;11.238;2023-03-05T12:00:38;47.50;;;24.50;;
50689;SDS011;54375;48.298;11.238;2023-03-05T12:31:05;39.03;;;19.80;;
50689;SDS011;54375;48.298;11.238;2023-03-05T12:46:26;38.20;;;19.90;;
50689;SDS011;54375;48.298;11.238;2023-03-05T13:01:31;40.47;;;19.90;;
50689;SDS011;54375;48.298;11.238;2023-03-05T13:16:40;40.85;;;21.60;;
50689;SDS011;54375;48.298;11.238;2023-03-05T13:31:44;44.67;;;20.65;;
50689;SDS011;54375;48.298;11.238;2023-03-05T13:46:47;45.75;;;20.90;;
50689;SDS011;54375;48.298;11.238;2023-03-05T14:01:50;31.02;;;14.68;;
50689;SDS011;54375;48.298;11.238;2023-03-05T14:16:53;30.67;;;13.68;;
50689;SDS011;54375;48.298;11.238;2023-03-05T14:31:56;26.70;;;12.43;;
50689;SDS011;54375;48.298;11.238;2023-03-05T14:47:00;20.95;;;11.43;;
50689;SDS011;54375;48.298;11.238;2023-03-05T15:02:05;19.25;;;10.80;;
50689;SDS011;54375;48.298;11.238;2023-03-05T15:17:15;24.92;;;11.48;;
50689;SDS011;54375;48.298;11.238;2023-03-05T15:32:21;23.42;;;13.15;;
50689;SDS011;54375;48.298;11.238;2023-03-05T15:47:23;29.25;;;14.88;;
50689;SDS011;54375;48.298;11.238;2023-03-05T16:02:25;22.10;;;11.48;;
50689;SDS011;54375;48.298;11.238;2023-03-05T16:17:27;19.60;;;10.00;;
50689;SDS011;54375;48.298;11.238;2023-03-05T16:32:30;22.52;;;11.15;;
50689;SDS011;54375;48.298;11.238;2023-03-05T16:47:33;31.55;;;14.10;;
50689;SDS011;54375;48.298;11.238;2023-03-05T17:02:35;39.85;;;18.13;;
50689;SDS011;54375;48.298;11.238;2023-03-05T17:17:38;25.88;;;14.43;;
50689;SDS011;54375;48.298;11.238;2023-03-05T17:32:41;31.70;;;13.95;;
50689;SDS011;54375;48.298;11.238;2023-03-05T17:47:43;33.13;;;17.90;;
50689;SDS011;54375;48.298;11.238;2023-03-05T18:02:46;35.63;;;20.73;;
50689;SDS011;54375;48.298;11.238;2023-03-05T18:17:49;26.70;;;13.05;;
50689;SDS011;54375;48.298;11.238;2023-03-05T18:32:52;21.67;;;11.00;;
50689;SDS011;54375;48.298;11.238;2023-03-05T18:47:55;39.75;;;20.52;;
50689;SDS011;54375;48.298;11.238;2023-03-05T19:02:57;34.60;;;18.58;;
50689;SDS011;54375;48.298;11.238;2023-03-05T19:17:59;21.95;;;12.05;;
50689;SDS011;54375;48.298;11.238;2023-03-05T19:33:01;21.65;;;11.30;;
50689;SDS011;54375;48.298;11.238;2023-03-05T19:48:04;19.63;;;10.20;;
50689;SDS011;54375;48.298;11.238;2023-03-05T20:03:06;24.08;;;12.30;;
50689;SDS011;54375;48.298;11.238;2023-03-05T20:18:09;24.70;;;14.02;;
50689;SDS011;54375;48.298;11.238;2023-03-05T20:33:11;22.40;;;11.43;;
50689;SDS011;54375;48.298;11.238;2023-03-05T20:48:13;22.08;;;11.60;;
50689;SDS011;54375;48.298;11.238;2023-03-05T21:03:15;22.92;;;11.25;;
50689;SDS011;54375;48.298;11.238;2023-03-05T21:18:17;23.45;;;12.10;;
50689;SDS011;54375;48.298;11.238;2023-03-05T21:33:20;25.90;;;13.45;;
50689;SDS011;54375;48.298;11.238;2023-03-05T21:48:24;31.90;;;17.48;;
50689;SDS011;54375;48.298;11.238;2023-03-05T22:03:26;23.67;;;12.80;;
50689;SDS011;54375;48.298;11.238;2023-03-05T22:18:29;24.40;;;12.65;;
50689;SDS011;54375;48.298;11.238;2023-03-05T22:33:32;22.50;;;12.70;;
50689;SDS011;54375;48.298;11.238;2023-03-05T22:48:34;29.30;;;15.02;;
50689;SDS011;54375;48.298;11.238;2023-03-05T23:03:36;25.58;;;13.57;;
50689;SDS011;54375;48.298;11.238;2023-03-05T23:18:38;27.23;;;14.50;;
50689;SDS011;54375;48.298;11.238;2023-03-05T23:33:40;27.55;;;14.48;;
50689;SDS011;54375;48.298;11.238;2023-03-05T23:48:43;27.77;;;14.48;;
